createdAt,value
2023-03-31T00:03:34.282Z,7.20
2023-03-31T00:08:36.801Z,7.20
2023-03-31T00:13:39.577Z,7.20
2023-03-31T00:18:47.801Z,7.20
2023-03-31T00:23:54.091Z,7.20
2023-03-31T00:28:57.420Z,7.20
2023-03-31T00:33:59.924Z,7.20
2023-03-31T00:39:08.352Z,7.30
2023-03-31T00:49:27.868Z,7.20
2023-03-31T00:54:33.939Z,7.20
2023-03-31T00:59:42.573Z,7.20
2023-03-31T01:04:51.009Z,7.10
2023-03-31T01:09:57.210Z,7.10
2023-03-31T01:15:01.686Z,7.00
2023-03-31T01:25:46.045Z,7.00
2023-03-31T01:46:35.541Z,7.00
2023-03-31T01:56:58.279Z,6.90
2023-03-31T02:07:22.368Z,6.90
2023-03-31T02:12:28.439Z,6.80
2023-03-31T02:17:32.871Z,6.80
2023-03-31T02:22:39.407Z,6.80
2023-03-31T02:27:46.989Z,6.80
2023-03-31T02:32:49.518Z,6.70
2023-03-31T02:37:52.563Z,6.70
2023-03-31T02:42:54.930Z,6.70
2023-03-31T02:47:58.017Z,6.70
2023-03-31T02:53:23.552Z,6.80
2023-03-31T03:19:21.068Z,6.70
2023-03-31T03:24:23.379Z,7.00
2023-03-31T03:29:27.226Z,7.10
2023-03-31T03:34:29.689Z,7.10
2023-03-31T03:39:32.846Z,7.10
2023-03-31T03:44:35.064Z,7.10
2023-03-31T03:49:37.341Z,7.10
2023-03-31T03:54:39.530Z,7.10
2023-03-31T03:59:41.820Z,7.10
2023-03-31T04:04:44.130Z,7.10
2023-03-31T04:09:46.399Z,7.10
2023-03-31T04:14:48.808Z,7.10
2023-03-31T04:19:53.031Z,7.10
2023-03-31T04:24:58.734Z,7.10
2023-03-31T04:30:01.139Z,7.10
2023-03-31T04:35:03.527Z,7.10
2023-03-31T04:40:08.190Z,7.20
2023-03-31T04:45:11.967Z,7.30
2023-03-31T04:50:16.908Z,7.40
2023-03-31T04:55:19.484Z,7.50
2023-03-31T05:00:22.279Z,7.60
2023-03-31T05:05:24.650Z,7.70
2023-03-31T05:10:26.997Z,7.90
2023-03-31T05:15:29.405Z,8.10
2023-03-31T05:20:31.677Z,8.30
2023-03-31T05:25:34.176Z,8.40
2023-03-31T05:30:36.495Z,8.60
2023-03-31T05:35:38.755Z,8.70
2023-03-31T05:40:40.977Z,8.70
2023-03-31T05:45:43.255Z,8.80
2023-03-31T05:50:45.962Z,8.90
2023-03-31T05:55:48.271Z,8.90
2023-03-31T06:00:54.030Z,9.00
2023-03-31T06:05:56.717Z,9.00
2023-03-31T06:10:59.061Z,9.20
2023-03-31T06:16:02.028Z,9.40
2023-03-31T06:21:05.790Z,9.80
2023-03-31T06:26:08.957Z,10.10
2023-03-31T06:31:14.667Z,10.20
2023-03-31T06:36:18.902Z,10.30
2023-03-31T06:41:22.554Z,10.40
2023-03-31T06:46:24.917Z,10.50
2023-03-31T06:51:27.177Z,10.50
2023-03-31T06:56:29.522Z,10.40
2023-03-31T07:01:31.918Z,10.40
2023-03-31T07:06:35.137Z,10.60
2023-03-31T07:11:37.395Z,10.70
2023-03-31T07:16:39.663Z,10.80
2023-03-31T07:21:42.161Z,10.80
2023-03-31T07:26:44.399Z,10.80
2023-03-31T07:31:48.090Z,10.70
2023-03-31T07:36:51.441Z,10.70
2023-03-31T07:41:53.762Z,10.80
2023-03-31T07:46:56.010Z,10.90
2023-03-31T07:51:58.360Z,11.00
2023-03-31T07:57:03.378Z,10.90
2023-03-31T08:02:05.808Z,10.90
2023-03-31T08:07:10.790Z,10.80
2023-03-31T08:12:14.284Z,10.90
2023-03-31T08:17:16.540Z,11.00
2023-03-31T08:22:18.842Z,10.90
2023-03-31T08:27:21.256Z,10.90
2023-03-31T08:32:24.469Z,10.70
2023-03-31T08:37:28.715Z,10.80
2023-03-31T08:47:42.264Z,10.90
2023-03-31T08:53:06.730Z,10.80
2023-03-31T09:03:29.958Z,10.60
2023-03-31T09:08:36.280Z,10.50
2023-03-31T09:14:17.396Z,10.40
2023-03-31T09:30:05.767Z,10.40
2023-03-31T09:35:18.942Z,10.40
2023-03-31T09:40:25.531Z,10.40
2023-03-31T09:45:28.600Z,10.30
2023-03-31T09:50:33.261Z,10.40
2023-03-31T10:01:06.379Z,10.40
2023-03-31T10:06:11.456Z,10.30
2023-03-31T10:11:13.959Z,10.50
2023-03-31T10:21:39.609Z,10.40
2023-03-31T10:26:42.011Z,10.50
2023-03-31T10:31:44.306Z,10.50
2023-03-31T10:36:48.914Z,10.40
2023-03-31T10:41:52.901Z,10.20
2023-03-31T10:46:55.450Z,10.30
2023-03-31T10:52:01.132Z,10.40
2023-03-31T10:57:06.360Z,10.30
2023-03-31T11:12:52.589Z,10.50
2023-03-31T12:04:43.132Z,8.60
2023-03-31T12:10:05.725Z,9.90
2023-03-31T12:20:37.977Z,10.10
2023-03-31T12:31:02.016Z,10.70
2023-03-31T12:52:27.978Z,10.70
2023-03-31T12:57:30.416Z,10.60
2023-03-31T13:02:32.876Z,10.50
2023-03-31T13:23:26.116Z,10.40
2023-03-31T13:49:53.988Z,11.40
2023-03-31T21:04:09.110Z,4.90
2023-03-31T21:09:15.920Z,5.70
2023-03-31T21:14:18.237Z,7.00
2023-03-31T21:19:20.518Z,8.20
2023-03-31T21:24:22.879Z,9.20
2023-03-31T21:29:25.136Z,10.00
2023-03-31T21:34:27.448Z,10.60
2023-03-31T21:39:29.716Z,11.10
2023-03-31T21:44:31.971Z,11.50
2023-03-31T21:49:34.212Z,11.80
2023-03-31T21:54:36.692Z,12.00
2023-03-31T21:59:38.990Z,12.10
2023-03-31T22:04:41.564Z,12.20
2023-03-31T22:09:43.766Z,12.30
2023-03-31T22:14:46.120Z,12.40
2023-03-31T22:19:48.357Z,12.40
2023-03-31T22:24:50.601Z,12.50
2023-03-31T22:29:52.820Z,12.50
2023-03-31T22:34:55.137Z,12.50
2023-03-31T22:39:57.489Z,12.50
2023-03-31T22:45:00.484Z,12.40
2023-03-31T22:50:02.836Z,12.40
2023-03-31T22:55:06.367Z,12.40
2023-03-31T23:00:09.309Z,12.40
2023-03-31T23:05:11.606Z,12.40
2023-03-31T23:10:13.862Z,12.40
2023-03-31T23:15:16.310Z,12.40
2023-03-31T23:20:18.649Z,12.40
2023-03-31T23:25:20.844Z,12.40
2023-03-31T23:30:23.062Z,12.40
